Time;durP1;ratioP1;P1;durP2;ratioP2;P2;SDS_P1;SDS_P2;PMS_P1;PMS_P2;Temp;Humidity;BMP_temperature;BMP_pressure;BME280_temperature;BME280_humidity;BME280_pressure;Samples;Min_cycle;Max_cycle;Signal;HPM_P1;HPM_P2
2022/08/21 00:01:28;;;;;;;23.40;6.72;;;17.80;97.80;;;;;;4805141;29;20142;-72
2022/08/21 00:03:55;;;;;;;22.38;6.93;;;18.10;98.50;;;;;;4804251;29;20062;-72
2022/08/21 00:06:23;;;;;;;23.20;7.63;;;18.70;99.90;;;;;;4825944;29;20088;-72
2022/08/21 00:08:50;;;;;;;22.75;7.68;;;17.80;99.90;;;;;;4824749;29;20082;-72
2022/08/21 00:11:16;;;;;;;22.50;7.65;;;18.20;99.90;;;;;;4817132;29;20072;-72
2022/08/21 00:13:42;;;;;;;20.25;7.07;;;17.70;97.70;;;;;;4831048;29;20038;-72
2022/08/21 00:16:09;;;;;;;26.73;8.60;;;;;;;;;;4818641;29;20039;-72
2022/08/21 00:18:34;;;;;;;22.10;7.85;;;18.20;99.90;;;;;;4804183;29;20050;-72
2022/08/21 00:21:00;;;;;;;17.88;7.55;;;18.70;99.90;;;;;;4804258;29;20055;-72
2022/08/21 00:23:26;;;;;;;20.50;8.27;;;17.00;99.90;;;;;;4788843;29;20058;-72
2022/08/21 00:25:52;;;;;;;19.40;7.38;;;;;;;;;;4818515;29;20051;-73
2022/08/21 00:28:18;;;;;;;19.48;7.18;;;;;;;;;;4803889;29;20488;-73
2022/08/21 00:30:44;;;;;;;28.75;8.18;;;16.30;99.90;;;;;;4803866;29;20122;-72
2022/08/21 00:33:11;;;;;;;19.02;7.50;;;16.90;99.90;;;;;;4826156;29;20138;-72
2022/08/21 00:35:40;;;;;;;17.38;7.30;;;16.60;99.90;;;;;;4818211;29;20039;-72
2022/08/21 00:38:07;;;;;;;22.55;7.78;;;17.60;99.90;;;;;;4801460;29;20054;-72
2022/08/21 00:40:42;;;;;;;21.25;8.30;;;16.40;99.90;;;;;;4803934;29;20496;-72
2022/08/21 00:43:11;;;;;;;20.20;7.75;;;17.20;98.70;;;;;;4804796;29;20053;-72
2022/08/21 00:45:38;;;;;;;28.02;9.10;;;16.20;99.90;;;;;;4836942;29;20079;-72
2022/08/21 00:48:04;;;;;;;17.00;8.15;;;18.40;99.90;;;;;;4831505;29;20042;-72
2022/08/21 00:50:34;;;;;;;20.40;8.48;;;17.20;98.80;;;;;;4792106;29;20118;-72
2022/08/21 00:53:02;;;;;;;21.52;8.75;;;17.20;98.90;;;;;;4807080;29;20039;-72
2022/08/21 00:55:29;;;;;;;22.30;9.02;;;;;;;;;;4807589;29;20047;-72
2022/08/21 00:57:58;;;;;;;23.15;9.48;;;17.00;99.00;;;;;;4804726;29;20520;-72
2022/08/21 01:00:30;;;;;;;19.70;9.27;;;17.30;99.00;;;;;;4807494;29;20073;-72
2022/08/21 01:02:57;;;;;;;26.75;10.90;;;17.30;98.80;;;;;;4818875;29;20105;-72
2022/08/21 01:05:24;;;;;;;19.88;10.40;;;16.00;99.90;;;;;;4789747;29;20099;-73
2022/08/21 01:07:50;;;;;;;25.08;10.00;;;;;;;;;;4835340;29;20039;-72
2022/08/21 01:10:18;;;;;;;26.90;10.10;;;17.00;99.30;;;;;;4807235;29;20111;-72
2022/08/21 01:12:44;;;;;;;23.08;11.05;;;16.80;98.80;;;;;;4806880;29;20055;-72
2022/08/21 01:15:10;;;;;;;23.15;10.35;;;;;;;;;;4836827;29;20526;-72
2022/08/21 01:17:37;;;;;;;28.42;10.98;;;;;;;;;;4806839;29;20499;-72
2022/08/21 01:20:08;;;;;;;23.77;11.07;;;16.80;99.70;;;;;;4806867;29;20077;-68
2022/08/21 01:22:34;;;;;;;31.80;11.13;;;;;;;;;;4806490;29;20050;-68
2022/08/21 01:25:00;;;;;;;23.83;10.73;;;;;;;;;;4806748;29;20047;-68
2022/08/21 01:27:26;;;;;;;24.83;11.30;;;;;;;;;;4791602;29;20043;-68
2022/08/21 01:30:08;;;;;;;22.10;11.35;;;17.00;99.80;;;;;;4806843;29;20115;-68
2022/08/21 01:32:35;;;;;;;23.35;11.55;;;;;;;;;;4806244;29;20476;-68
2022/08/21 01:35:01;;;;;;;28.92;12.50;;;;;;;;;;4806597;29;20042;-68
2022/08/21 01:37:27;;;;;;;26.98;12.50;;;;;;;;;;4806703;29;20042;-68
2022/08/21 01:39:53;;;;;;;24.55;11.48;;;;;;;;;;4806537;29;20046;-68
2022/08/21 01:42:19;;;;;;;29.20;12.23;;;;;;;;;;4806441;29;20514;-68
2022/08/21 01:44:45;;;;;;;26.13;12.60;;;15.80;99.90;;;;;;4791166;29;20045;-73
2022/08/21 01:47:13;;;;;;;24.88;11.93;;;16.70;99.90;;;;;;4806258;29;20051;-72
2022/08/21 01:49:39;;;;;;;27.30;12.68;;;;;;;;;;4835935;29;20058;-72
2022/08/21 01:52:06;;;;;;;25.02;11.80;;;16.80;99.90;;;;;;4805994;29;20050;-72
2022/08/21 01:54:32;;;;;;;31.05;13.10;;;;;;;;;;4806403;29;20099;-72
2022/08/21 01:56:59;;;;;;;25.65;12.35;;;16.60;99.90;;;;;;4805928;29;20058;-72
2022/08/21 01:59:25;;;;;;;26.50;12.35;;;;;;;;;;4806106;29;20061;-72
2022/08/21 02:01:53;;;;;;;26.33;12.52;;;;;;;;;;4806086;29;20092;-72
2022/08/21 02:04:20;;;;;;;19.88;11.30;;;;;;;;;;4805967;29;20057;-72
2022/08/21 02:06:47;;;;;;;26.13;11.25;;;17.00;99.90;;;;;;4790979;29;20143;-72
2022/08/21 02:09:13;;;;;;;21.25;10.98;;;;;;;;;;4831105;29;20054;-72
2022/08/21 02:11:40;;;;;;;23.67;10.93;;;16.70;99.90;;;;;;4806089;29;20051;-73
2022/08/21 02:14:14;;;;;;;29.08;11.77;;;;;;;;;;4803604;29;20074;-72
2022/08/21 02:16:41;;;;;;;27.77;11.65;;;16.50;99.90;;;;;;4806064;29;20068;-68
2022/08/21 02:19:07;;;;;;;25.60;11.65;;;16.60;99.90;;;;;;4832110;29;20141;-68
2022/08/21 02:21:33;;;;;;;22.25;10.65;;;;;;;;;;4805583;29;20047;-68
2022/08/21 02:23:59;;;;;;;29.45;10.77;;;;;;;;;;4805723;29;20038;-68
2022/08/21 02:26:25;;;;;;;23.17;10.95;;;16.50;99.90;;;;;;4805696;29;20051;-68
2022/08/21 02:28:51;;;;;;;27.50;11.00;;;16.60;99.90;;;;;;4805330;29;20126;-68
2022/08/21 02:31:17;;;;;;;25.83;11.65;;;;;;;;;;4820249;29;20042;-68
2022/08/21 02:33:43;;;;;;;24.48;11.18;;;;;;;;;;4805871;29;20551;-68
2022/08/21 02:36:10;;;;;;;30.45;11.32;;;16.70;99.90;;;;;;4805864;29;20488;-68
2022/08/21 02:38:40;;;;;;;31.85;11.02;;;;;;;;;;4805370;29;20054;-68
2022/08/21 02:41:08;;;;;;;28.38;10.98;;;15.80;99.90;;;;;;4790857;29;20055;-68
2022/08/21 02:43:35;;;;;;;21.13;9.57;;;16.50;99.90;;;;;;4805529;29;20043;-68
2022/08/21 02:46:03;;;;;;;22.30;10.88;;;16.60;99.90;;;;;;4834865;29;20455;-68
2022/08/21 02:48:31;;;;;;;28.67;10.70;;;16.40;99.90;;;;;;4828953;29;20054;-68
2022/08/21 02:51:02;;;;;;;21.45;10.18;;;;;;;;;;4827724;29;20122;-68
2022/08/21 02:53:29;;;;;;;22.70;10.88;;;;;;;;;;4805070;29;20079;-68
2022/08/21 02:55:55;;;;;;;31.25;11.23;;;;;;;;;;4790169;29;20046;-68
2022/08/21 02:58:27;;;;;;;26.45;11.38;;;16.40;99.90;;;;;;4804897;29;20069;-68
2022/08/21 03:00:53;;;;;;;;;;;16.40;99.90;;;;;;4833786;29;20082;-68
2022/08/21 03:03:20;;;;;;;26.08;10.50;;;;;;;;;;4804820;29;19921;-68
2022/08/21 03:05:47;;;;;;;33.22;12.00;;;;;;;;;;4804890;29;20038;-68
2022/08/21 03:08:14;;;;;;;25.67;10.73;;;16.40;99.90;;;;;;4805083;29;20066;-68
2022/08/21 03:10:44;;;;;;;22.48;10.48;;;16.40;99.90;;;;;;4804792;29;20046;-69
2022/08/21 03:13:11;;;;;;;24.48;10.48;;;;;;;;;;4805902;29;20070;-68
2022/08/21 03:15:37;;;;;;;23.20;10.80;;;15.10;99.90;;;;;;4804827;29;20047;-69
2022/08/21 03:18:04;;;;;;;30.77;10.45;;;;;;;;;;4829061;29;20054;-68
2022/08/21 03:20:32;;;;;;;25.55;10.57;;;;;;;;;;4804936;29;20054;-68
2022/08/21 03:22:58;;;;;;;28.85;10.70;;;16.30;99.90;;;;;;4789835;29;20039;-68
2022/08/21 03:25:26;;;;;;;27.65;12.00;;;16.40;99.90;;;;;;4834233;29;20054;-68
2022/08/21 03:27:52;;;;;;;23.80;10.30;;;;;;;;;;4789464;29;20046;-68
2022/08/21 03:30:21;;;;;;;25.90;10.77;;;16.20;99.90;;;;;;4803464;29;20507;-68
2022/08/21 03:32:48;;;;;;;26.65;11.05;;;;;;;;;;4804774;29;20071;-73
2022/08/21 03:35:15;;;;;;;23.83;9.73;;;;;;;;;;4789510;29;20099;-73
2022/08/21 03:37:41;;;;;;;24.08;10.75;;;;;;;;;;4804544;29;20134;-72
2022/08/21 03:40:08;;;;;;;23.25;9.95;;;16.60;99.90;;;;;;4804448;29;20078;-72
2022/08/21 03:42:34;;;;;;;35.03;10.32;;;;;;;;;;4834384;29;20050;-72
2022/08/21 03:45:01;;;;;;;30.92;10.40;;;;;;;;;;4804564;29;20070;-72
2022/08/21 03:47:27;;;;;;;27.27;10.30;;;;;;;;;;4804495;29;20477;-73
2022/08/21 03:49:54;;;;;;;29.45;9.88;;;;;;;;;;4805404;29;20038;-72
2022/08/21 03:52:20;;;;;;;28.45;10.32;;;;;;;;;;4804647;29;20442;-68
2022/08/21 03:54:46;;;;;;;28.85;9.80;;;15.30;99.90;;;;;;4803815;29;20050;-68
2022/08/21 03:57:12;;;;;;;29.75;10.75;;;;;;;;;;4804294;29;20134;-68
2022/08/21 03:59:39;;;;;;;33.53;10.98;;;;;;;;;;4804112;29;20122;-68
2022/08/21 04:02:06;;;;;;;31.98;11.07;;;16.40;99.90;;;;;;4804033;29;20112;-68
2022/08/21 04:04:33;;;;;;;32.85;10.88;;;16.60;99.90;;;;;;4786651;29;20575;-68
2022/08/21 04:07:00;;;;;;;31.50;10.55;;;;;;;;;;4789018;29;20481;-68
2022/08/21 04:09:26;;;;;;;27.90;10.63;;;;;;;;;;4803905;29;20096;-68
2022/08/21 04:11:52;;;;;;;24.50;11.13;;;15.00;99.90;;;;;;4789274;29;20039;-69
2022/08/21 04:14:18;;;;;;;34.08;11.13;;;;;;;;;;4803556;29;20045;-68
2022/08/21 04:16:44;;;;;;;24.95;10.70;;;16.20;99.90;;;;;;4787946;29;20075;-68
2022/08/21 04:19:12;;;;;;;25.52;10.88;;;16.10;99.90;;;;;;4823050;29;20046;-68
2022/08/21 04:21:39;;;;;;;28.25;11.15;;;;;;;;;;4804040;29;20373;-68
2022/08/21 04:24:07;;;;;;;34.65;10.98;;;15.20;99.90;;;;;;4788859;29;20412;-68
2022/08/21 04:26:34;;;;;;;37.63;11.85;;;16.20;99.90;;;;;;4804079;29;20471;-68
2022/08/21 04:29:00;;;;;;;22.67;10.68;;;15.00;99.90;;;;;;4829373;29;20055;-68
2022/08/21 04:31:31;;;;;;;25.88;10.38;;;16.10;99.90;;;;;;4803781;29;20090;-68
2022/08/21 04:33:57;;;;;;;26.38;11.05;;;;;;;;;;4802388;29;20038;-68
2022/08/21 04:36:23;;;;;;;29.67;11.30;;;;;;;;;;4803908;29;20042;-68
2022/08/21 04:38:49;;;;;;;30.27;12.00;;;;;;;;;;4803899;29;20172;-67
2022/08/21 04:41:15;;;;;;;28.40;11.07;;;;;;;;;;4789033;29;20051;-68
2022/08/21 04:43:42;;;;;;;30.40;11.25;;;;;;;;;;4803866;29;20413;-68
2022/08/21 04:46:08;;;;;;;29.23;9.88;;;;;;;;;;4805076;29;20121;-68
2022/08/21 04:48:34;;;;;;;32.25;11.13;;;;;;;;;;4818076;29;20043;-68
2022/08/21 04:51:11;;;;;;;26.52;11.57;;;16.00;99.90;;;;;;4803416;29;20051;-68
2022/08/21 04:53:37;;;;;;;28.23;11.25;;;;;;;;;;4788735;29;20047;-68
2022/08/21 04:56:11;;;;;;;23.33;10.77;;;16.00;99.90;;;;;;4803348;29;20046;-68
2022/08/21 04:58:38;;;;;;;27.05;10.75;;;16.10;99.90;;;;;;4830992;29;20069;-72
2022/08/21 05:01:06;;;;;;;26.55;11.40;;;16.10;99.90;;;;;;4828564;29;20050;-72
2022/08/21 05:03:34;;;;;;;29.85;12.40;;;16.20;99.90;;;;;;4801526;29;20125;-73
2022/08/21 05:06:00;;;;;;;28.60;11.75;;;;;;;;;;4804814;29;20066;-71
2022/08/21 05:08:27;;;;;;;25.88;10.88;;;16.40;99.90;;;;;;4803458;29;20125;-73
2022/08/21 05:10:54;;;;;;;29.48;12.10;;;16.30;99.90;;;;;;4803455;29;20046;-73
2022/08/21 05:13:20;;;;;;;23.83;12.45;;;16.30;99.90;;;;;;4788698;29;20081;-73
2022/08/21 05:15:46;;;;;;;36.28;11.38;;;;;;;;;;4803351;29;20042;-67
2022/08/21 05:18:13;;;;;;;37.88;11.38;;;;;;;;;;4788780;29;20054;-73
2022/08/21 05:20:39;;;;;;;27.55;10.82;;;;;;;;;;4803474;29;20053;-73
2022/08/21 05:23:13;;;;;;;24.70;11.30;;;16.10;99.90;;;;;;4787629;29;20504;-68
2022/08/21 05:25:39;;;;;;;28.52;11.70;;;;;;;;;;4802900;29;20047;-68
2022/08/21 05:28:06;;;;;;;27.45;12.70;;;;;;;;;;4802829;29;20043;-68
2022/08/21 05:30:32;;;;;;;27.33;11.80;;;;;;;;;;4806708;29;20389;-68
2022/08/21 05:33:00;;;;;;;27.55;13.02;;;16.50;99.90;;;;;;4791658;29;20050;-69
2022/08/21 05:35:27;;;;;;;31.80;12.50;;;;;;;;;;4791302;29;20042;-69
2022/08/21 05:37:53;;;;;;;31.50;12.13;;;;;;;;;;4806558;29;20046;-69
2022/08/21 05:40:19;;;;;;;30.63;11.55;;;;;;;;;;4806270;29;20034;-69
2022/08/21 05:42:45;;;;;;;35.40;12.30;;;17.20;99.90;;;;;;4806688;29;20119;-69
2022/08/21 05:45:11;;;;;;;32.28;11.27;;;;;;;;;;4806295;29;20496;-69
2022/08/21 05:47:37;;;;;;;27.08;11.70;;;;;;;;;;4791397;29;20039;-68
2022/08/21 05:50:04;;;;;;;36.65;12.43;;;16.50;99.90;;;;;;4806326;29;20047;-69
2022/08/21 05:52:30;;;;;;;25.98;12.40;;;;;;;;;;4806186;29;20188;-69
2022/08/21 05:54:56;;;;;;;31.00;11.70;;;;;;;;;;4805757;29;20051;-69
2022/08/21 05:57:23;;;;;;;33.25;12.25;;;;;;;;;;4806185;29;20065;-69
2022/08/21 05:59:49;;;;;;;29.13;11.60;;;16.70;99.90;;;;;;4805960;29;20050;-69
2022/08/21 06:02:18;;;;;;;30.13;11.05;;;17.30;99.90;;;;;;4819533;29;20050;-69
2022/08/21 06:04:44;;;;;;;27.00;11.98;;;;;;;;;;4820183;29;20047;-69
2022/08/21 06:07:10;;;;;;;24.60;10.30;;;;;;;;;;4806154;29;20046;-72
2022/08/21 06:09:37;;;;;;;28.25;11.13;;;;;;;;;;4791085;29;20039;-69
2022/08/21 06:12:05;;;;;;;30.25;11.20;;;16.70;99.90;;;;;;4806263;29;20055;-68
2022/08/21 06:14:31;;;;;;;24.35;10.48;;;;;;;;;;4806081;29;20041;-68
2022/08/21 06:17:05;;;;;;;27.05;10.88;;;17.10;99.90;;;;;;4806223;29;20047;-68
2022/08/21 06:19:31;;;;;;;30.05;11.88;;;;;;;;;;4826744;29;20343;-68
2022/08/21 06:21:57;;;;;;;31.38;11.40;;;;;;;;;;4804663;29;20042;-68
2022/08/21 06:24:23;;;;;;;38.80;11.25;;;18.30;99.90;;;;;;4805740;29;20058;-69
2022/08/21 06:26:49;;;;;;;39.15;11.85;;;;;;;;;;4827004;29;20042;-68
2022/08/21 06:29:19;;;;;;;27.80;9.93;;;;;;;;;;4812098;29;20042;-68
2022/08/21 06:31:45;;;;;;;27.45;10.45;;;;;;;;;;4805333;29;20519;-68
2022/08/21 06:34:12;;;;;;;30.02;10.50;;;;;;;;;;4805597;29;20039;-69
2022/08/21 06:36:38;;;;;;;25.05;10.63;;;18.50;99.90;;;;;;4805807;29;20131;-68
2022/08/21 06:39:04;;;;;;;28.60;10.13;;;;;;;;;;4804347;29;20126;-68
2022/08/21 06:41:32;;;;;;;28.40;10.90;;;16.80;99.90;;;;;;4805311;29;20051;-68
2022/08/21 06:43:58;;;;;;;34.22;11.25;;;;;;;;;;4826486;29;20042;-68
2022/08/21 06:46:26;;;;;;;29.02;9.23;;;17.70;99.90;;;;;;4804883;29;20492;-68
2022/08/21 06:48:52;;;;;;;35.72;9.30;;;;;;;;;;4805007;29;20085;-69
2022/08/21 06:51:19;;;;;;;26.23;9.48;;;;;;;;;;4805485;29;20085;-68
2022/08/21 06:53:45;;;;;;;28.88;10.20;;;17.90;99.90;;;;;;4816736;29;20049;-68
2022/08/21 06:56:11;;;;;;;30.80;10.32;;;;;;;;;;4789773;29;20055;-68
2022/08/21 06:58:37;;;;;;;35.70;9.50;;;;;;;;;;4804764;29;20067;-68
2022/08/21 07:01:04;;;;;;;30.17;9.40;;;17.90;99.90;;;;;;4809209;29;20115;-69
2022/08/21 07:03:33;;;;;;;37.55;10.30;;;17.70;99.90;;;;;;4833622;29;20046;-69
2022/08/21 07:05:59;;;;;;;32.33;9.18;;;;;;;;;;4804418;29;20047;-68
2022/08/21 07:08:26;;;;;;;23.73;8.60;;;18.10;99.90;;;;;;4819696;29;20334;-69
2022/08/21 07:10:54;;;;;;;22.00;7.68;;;17.50;99.90;;;;;;4804705;29;20059;-68
2022/08/21 07:13:20;;;;;;;32.95;8.98;;;;;;;;;;4804800;29;20054;-68
2022/08/21 07:15:47;;;;;;;34.90;8.85;;;;;;;;;;4804632;29;20070;-68
2022/08/21 07:18:13;;;;;;;33.08;9.13;;;;;;;;;;4804804;29;20139;-68
2022/08/21 07:20:39;;;;;;;28.27;9.05;;;;;;;;;;4806230;29;20082;-68
2022/08/21 07:23:10;;;;;;;32.72;8.18;;;18.70;99.90;;;;;;4791423;29;20092;-68
2022/08/21 07:25:36;;;;;;;23.20;7.68;;;;;;;;;;4804458;29;20053;-68
2022/08/21 07:28:02;;;;;;;28.77;7.93;;;19.70;99.90;;;;;;4804322;29;20191;-68
2022/08/21 07:30:28;;;;;;;28.88;7.90;;;;;;;;;;4789923;29;20392;-68
2022/08/21 07:32:54;;;;;;;24.52;7.60;;;;;;;;;;4804450;29;20043;-72
2022/08/21 07:35:21;;;;;;;28.67;7.10;;;18.90;99.90;;;;;;4804452;29;20090;-73
2022/08/21 07:37:48;;;;;;;27.52;6.20;;;;;;;;;;4816404;29;20075;-73
2022/08/21 07:40:15;;;;;;;27.63;5.68;;;18.90;99.90;;;;;;4804625;29;20397;-73
2022/08/21 07:42:47;;;;;;;31.30;5.43;;;19.90;99.90;;;;;;4825754;29;20035;-73
2022/08/21 07:45:13;;;;;;;24.70;5.60;;;;;;;;;;4802190;29;20408;-73
2022/08/21 07:47:39;;;;;;;25.38;5.38;;;;;;;;;;4804143;29;20484;-69
2022/08/21 07:50:06;;;;;;;31.25;5.80;;;18.90;99.90;;;;;;4814304;29;20078;-68
2022/08/21 07:52:33;;;;;;;31.35;5.57;;;19.30;99.90;;;;;;4803256;29;20058;-69
2022/08/21 07:54:59;;;;;;;30.85;5.50;;;;;;;;;;4824375;29;20062;-69
2022/08/21 07:57:25;;;;;;;35.70;5.97;;;;;;;;;;4803181;29;20055;-68
2022/08/21 07:59:51;;;;;;;21.33;5.53;;;;;;;;;;4804407;29;20393;-69
2022/08/21 08:02:26;;;;;;;28.73;5.72;;;20.40;99.90;;;;;;4807134;29;20058;-69
2022/08/21 08:04:52;;;;;;;34.63;6.25;;;;;;;;;;4813523;29;20058;-68
2022/08/21 08:07:18;;;;;;;22.38;5.28;;;19.20;99.90;;;;;;4816867;29;20453;-68
2022/08/21 08:09:44;;;;;;;27.92;5.65;;;;;;;;;;4804085;29;20082;-68
2022/08/21 08:12:10;;;;;;;27.23;5.57;;;;;;;;;;4795345;29;20043;-69
2022/08/21 08:14:36;;;;;;;33.50;7.18;;;19.40;99.90;;;;;;4799210;29;20117;-69
2022/08/21 08:17:02;;;;;;;30.35;6.10;;;;;;;;;;4829873;29;20575;-69
2022/08/21 08:19:29;;;;;;;27.98;5.72;;;;;;;;;;4812817;29;20047;-69
2022/08/21 08:21:55;;;;;;;31.70;5.90;;;;;;;;;;4798840;29;20050;-69
2022/08/21 08:24:21;;;;;;;28.05;5.95;;;;;;;;;;4798952;29;20043;-69
2022/08/21 08:26:47;;;;;;;30.13;7.13;;;19.40;99.90;;;;;;4811993;29;20496;-74
2022/08/21 08:29:13;;;;;;;32.53;6.00;;;;;;;;;;4813379;29;20511;-74
2022/08/21 08:31:39;;;;;;;32.45;6.50;;;;;;;;;;4813241;29;20044;-73
2022/08/21 08:34:05;;;;;;;26.05;5.90;;;;;;;;;;4813644;29;20066;-74
2022/08/21 08:36:34;;;;;;;26.45;5.78;;;20.70;99.90;;;;;;4806514;29;20054;-74
2022/08/21 08:39:01;;;;;;;33.80;6.70;;;20.80;99.90;;;;;;4804625;29;20147;-69
2022/08/21 08:41:29;;;;;;;33.83;6.85;;;21.10;99.90;;;;;;4804856;29;20071;-69
2022/08/21 08:44:03;;;;;;;29.48;6.15;;;19.90;99.90;;;;;;4789784;29;20054;-69
2022/08/21 08:46:42;;;;;;;27.35;6.30;;;20.60;99.90;;;;;;4801370;29;20420;-69
2022/08/21 08:49:24;;;;;;;37.05;6.07;;;21.20;99.90;;;;;;4803277;29;20043;-70
2022/08/21 08:51:52;;;;;;;28.98;6.15;;;21.30;99.90;;;;;;4805055;29;20108;-69
2022/08/21 08:54:26;;;;;;;33.50;5.97;;;21.60;99.90;;;;;;4826986;29;20049;-70
2022/08/21 08:56:54;;;;;;;30.52;5.63;;;21.30;99.90;;;;;;4804138;29;20066;-70
2022/08/21 08:59:26;;;;;;;22.27;5.28;;;21.30;99.50;;;;;;4789266;29;20569;-69
2022/08/21 09:01:52;;;;;;;28.27;5.03;;;20.40;99.90;;;;;;4804787;29;20049;-68
2022/08/21 09:04:23;;;;;;;24.88;5.38;;;22.20;99.90;;;;;;4808230;29;20047;-68
2022/08/21 09:07:12;;;;;;;27.23;5.18;;;22.00;99.90;;;;;;4833090;29;20508;-68
2022/08/21 09:10:03;;;;;;;22.27;5.10;;;22.10;99.90;;;;;;4807698;29;20050;-68
2022/08/21 09:12:48;;;;;;;18.08;5.05;;;22.40;99.90;;;;;;4807565;29;20039;-67
2022/08/21 09:15:42;;;;;;;25.30;4.90;;;22.50;99.90;;;;;;4838222;29;20042;-68
2022/08/21 09:18:15;;;;;;;23.98;5.45;;;22.50;99.80;;;;;;4807931;29;20386;-67
2022/08/21 09:20:56;;;;;;;30.83;4.93;;;22.60;99.60;;;;;;4807837;29;20125;-67
2022/08/21 09:23:43;;;;;;;23.15;4.60;;;21.00;98.00;;;;;;4827883;29;20054;-67
2022/08/21 09:26:16;;;;;;;16.35;4.50;;;21.20;99.90;;;;;;4807648;29;20051;-67
2022/08/21 09:28:42;;;;;;;24.02;4.20;;;22.30;99.90;;;;;;4807347;29;20047;-69
2022/08/21 09:31:33;;;;;;;20.10;4.28;;;22.30;95.90;;;;;;4807670;29;20090;-67
2022/08/21 09:34:01;;;;;;;21.83;4.97;;;21.30;99.00;;;;;;4800099;29;20035;-69
2022/08/21 09:36:41;;;;;;;23.15;4.68;;;22.80;97.20;;;;;;4807972;29;20051;-69
2022/08/21 09:39:08;;;;;;;21.63;4.85;;;22.50;96.40;;;;;;4815398;29;20039;-69
2022/08/21 09:41:36;;;;;;;24.83;5.18;;;21.60;99.30;;;;;;4807686;29;20073;-69
2022/08/21 09:44:03;;;;;;;20.67;4.93;;;22.10;94.80;;;;;;4816077;29;20130;-69
2022/08/21 09:46:28;;;;;;;20.90;4.63;;;22.50;99.50;;;;;;4807063;29;20461;-68
2022/08/21 09:48:58;;;;;;;20.45;4.40;;;20.50;99.00;;;;;;4792186;29;20039;-68
2022/08/21 09:51:33;;;;;;;24.48;4.63;;;21.90;99.50;;;;;;4828478;29;20055;-68
2022/08/21 09:54:05;;;;;;;25.30;5.13;;;22.10;99.50;;;;;;4810897;29;20038;-69
2022/08/21 09:59:32;;;;;;;23.20;4.53;;;22.80;99.00;;;;;;4814390;29;19920;-68
2022/08/21 10:02:01;;;;;;;15.73;3.90;;;21.80;98.30;;;;;;4799070;29;20138;-69
2022/08/21 10:04:33;;;;;;;15.57;4.35;;;22.60;92.60;;;;;;4814492;29;20093;-69
2022/08/21 10:07:14;;;;;;;24.75;4.47;;;22.30;97.50;;;;;;4815240;29;20484;-69
2022/08/21 10:09:41;;;;;;;28.80;4.25;;;22.70;92.50;;;;;;4812641;29;20049;-69
2022/08/21 10:12:23;;;;;;;17.58;4.10;;;21.90;96.80;;;;;;4801413;29;20051;-69
2022/08/21 10:14:59;;;;;;;12.52;3.70;;;22.70;97.00;;;;;;4828627;29;20107;-69
2022/08/21 10:17:47;;;;;;;20.08;4.57;;;22.40;97.10;;;;;;4814823;29;20053;-69
2022/08/21 10:20:48;;;;;;;20.38;3.80;;;21.50;96.90;;;;;;4815602;29;20077;-68
2022/08/21 10:23:38;;;;;;;11.57;2.80;;;21.40;96.40;;;;;;4832156;29;20164;-68
2022/08/21 10:26:04;;;;;;;17.55;3.78;;;;;;;;;;4814222;29;20384;-73
2022/08/21 10:28:39;;;;;;;12.80;4.00;;;21.90;96.50;;;;;;4817289;29;20034;-72
2022/08/21 10:31:12;;;;;;;14.02;3.63;;;21.70;94.90;;;;;;4813927;29;20421;-73
2022/08/21 10:33:38;;;;;;;14.15;3.17;;;22.00;96.50;;;;;;4813085;29;20043;-73
2022/08/21 10:36:07;;;;;;;11.18;3.00;;;22.10;96.40;;;;;;4813606;29;20050;-73
2022/08/21 10:38:52;;;;;;;14.15;3.35;;;23.40;96.10;;;;;;4797009;29;20046;-73
2022/08/21 10:41:26;;;;;;;16.52;3.42;;;23.40;93.50;;;;;;4814824;29;20046;-73
2022/08/21 10:44:15;;;;;;;14.93;3.33;;;23.50;91.20;;;;;;4806275;29;20430;-73
2022/08/21 10:46:55;;;;;;;20.50;3.67;;;22.70;91.20;;;;;;4806590;29;20058;-73
2022/08/21 10:49:32;;;;;;;21.92;4.43;;;23.50;95.10;;;;;;4806592;29;20078;-73
2022/08/21 10:52:43;;;;;;;17.27;3.90;;;23.80;93.60;;;;;;4791689;29;20462;-73
2022/08/21 10:55:17;;;;;;;13.00;3.20;;;22.70;94.10;;;;;;4805720;29;20051;-73
2022/08/21 10:58:03;;;;;;;13.65;3.33;;;23.10;87.30;;;;;;4804270;29;20067;-69
2022/08/21 11:00:50;;;;;;;13.82;3.20;;;23.80;94.60;;;;;;4826566;29;20046;-69
2022/08/21 11:03:17;;;;;;;14.07;3.70;;;22.90;94.10;;;;;;4806482;29;20054;-69
2022/08/21 11:05:55;;;;;;;18.92;3.42;;;24.00;93.90;;;;;;4805661;29;20055;-70
2022/08/21 11:08:33;;;;;;;10.55;2.60;;;23.20;85.20;;;;;;4806049;29;20051;-69
2022/08/21 11:11:12;;;;;;;24.00;3.60;;;23.40;92.80;;;;;;4825295;29;20051;-69
2022/08/21 11:13:55;;;;;;;14.55;3.20;;;23.60;83.30;;;;;;4805971;29;20039;-69
2022/08/21 11:16:35;;;;;;;20.42;3.65;;;23.70;83.40;;;;;;4811631;29;20089;-69
2022/08/21 11:19:04;;;;;;;15.68;3.72;;;23.70;83.50;;;;;;4812604;29;20445;-73
2022/08/21 11:21:35;;;;;;;20.65;4.05;;;24.20;87.60;;;;;;4815366;29;20086;-72
2022/08/21 11:24:31;;;;;;;21.00;4.03;;;23.70;93.00;;;;;;4812607;29;20053;-72
2022/08/21 11:27:14;;;;;;;15.65;3.13;;;23.80;83.30;;;;;;4812923;29;20055;-73
2022/08/21 11:29:43;;;;;;;18.80;4.47;;;23.80;92.70;;;;;;4812045;29;20584;-73
2022/08/21 11:32:27;;;;;;;13.45;3.45;;;24.30;92.70;;;;;;4814843;29;20557;-72
2022/08/21 11:35:11;;;;;;;29.90;4.25;;;23.50;92.40;;;;;;4813853;29;20047;-72
2022/08/21 11:37:47;;;;;;;20.15;3.40;;;24.00;82.10;;;;;;4812999;29;20056;-72
2022/08/21 11:40:44;;;;;;;15.10;3.95;;;24.50;92.50;;;;;;4813254;29;20042;-72
2022/08/21 11:43:31;;;;;;;23.02;4.40;;;24.40;92.50;;;;;;4813696;29;20057;-72
2022/08/21 11:46:09;;;;;;;19.10;4.13;;;24.00;82.30;;;;;;4813460;29;20131;-73
2022/08/21 11:49:02;;;;;;;17.48;3.92;;;23.80;92.10;;;;;;4833291;29;20070;-72
2022/08/21 11:51:38;;;;;;;18.10;3.97;;;24.30;91.90;;;;;;4812483;29;20046;-73
2022/08/21 11:54:18;;;;;;;13.25;3.78;;;23.40;92.00;;;;;;4812105;29;20049;-73
2022/08/21 11:56:55;;;;;;;23.25;3.95;;;24.00;91.90;;;;;;4812359;29;20100;-73
2022/08/21 11:59:31;;;;;;;16.75;3.60;;;23.30;91.50;;;;;;4811001;29;20115;-73
2022/08/21 12:01:57;;;;;;;19.05;3.53;;;23.80;83.00;;;;;;4812784;29;20042;-73
2022/08/21 12:04:32;;;;;;;19.75;4.03;;;23.40;83.00;;;;;;4799262;29;20111;-73
2022/08/21 12:07:27;;;;;;;18.95;3.97;;;24.70;86.80;;;;;;4811613;29;20403;-73
2022/08/21 12:09:56;;;;;;;15.38;3.78;;;24.30;91.70;;;;;;4816373;29;20034;-73
2022/08/21 12:12:34;;;;;;;16.50;3.90;;;24.90;91.40;;;;;;4810301;29;20043;-73
2022/08/21 12:15:15;;;;;;;15.73;3.15;;;24.60;80.90;;;;;;4814565;29;20046;-73
2022/08/21 12:17:59;;;;;;;19.05;3.00;;;25.20;91.20;;;;;;4810328;29;20067;-69
2022/08/21 12:20:40;;;;;;;21.30;3.35;;;24.60;90.90;;;;;;4810344;29;20046;-68
2022/08/21 12:23:25;;;;;;;15.82;2.83;;;25.20;90.40;;;;;;4812185;29;20511;-69
2022/08/21 12:26:17;;;;;;;18.17;3.35;;;24.80;90.20;;;;;;4813583;29;20046;-69
2022/08/21 12:28:43;;;;;;;12.95;2.83;;;24.40;79.60;;;;;;4796189;29;20047;-69
2022/08/21 12:31:26;;;;;;;10.65;2.85;;;24.60;79.40;;;;;;4782240;29;20043;-68
2022/08/21 12:33:59;;;;;;;11.27;3.00;;;25.00;89.90;;;;;;4811466;29;20510;-69
2022/08/21 12:36:43;;;;;;;13.35;3.60;;;25.00;89.60;;;;;;4813600;29;20121;-69
2022/08/21 12:39:17;;;;;;;16.55;2.90;;;25.20;89.60;;;;;;4821183;29;20050;-69
2022/08/21 12:41:59;;;;;;;10.25;3.55;;;24.00;86.80;;;;;;4802727;29;20505;-69
2022/08/21 12:44:42;;;;;;;18.35;3.55;;;25.40;89.80;;;;;;4819661;29;20556;-69
2022/08/21 12:47:25;;;;;;;12.60;3.95;;;24.60;89.10;;;;;;4791886;29;20042;-69
2022/08/21 12:50:16;;;;;;;13.43;3.20;;;25.40;89.00;;;;;;4810580;29;20105;-68
2022/08/21 12:52:53;;;;;;;14.95;3.33;;;24.30;88.90;;;;;;4808855;29;20039;-69
2022/08/21 12:55:28;;;;;;;13.73;2.83;;;25.20;86.50;;;;;;4794071;29;20050;-69
2022/08/21 12:57:54;;;;;;;23.27;4.13;;;24.40;89.30;;;;;;4811133;29;20051;-69
2022/08/21 13:00:23;;;;;;;19.88;3.92;;;25.10;88.70;;;;;;4812513;29;20057;-69
2022/08/21 13:02:50;;;;;;;23.55;3.03;;;24.30;88.30;;;;;;4812788;29;20130;-72
2022/08/21 13:05:29;;;;;;;11.40;2.85;;;24.70;88.90;;;;;;4806693;29;20051;-73
2022/08/21 13:07:56;;;;;;;21.73;3.78;;;24.90;89.20;;;;;;4831046;29;20059;-73
2022/08/21 13:10:26;;;;;;;19.25;3.20;;;23.80;85.40;;;;;;4820405;29;20055;-73
2022/08/21 13:13:00;;;;;;;16.60;3.17;;;25.10;89.30;;;;;;4807003;29;20042;-72
2022/08/21 13:15:30;;;;;;;13.07;3.30;;;24.50;79.20;;;;;;4792255;29;20126;-72
2022/08/21 13:18:02;;;;;;;16.92;3.40;;;25.20;89.90;;;;;;4806809;29;20108;-72
2022/08/21 13:20:40;;;;;;;13.23;3.20;;;24.60;79.00;;;;;;4791915;29;20542;-73
2022/08/21 13:23:21;;;;;;;11.60;3.05;;;25.40;85.70;;;;;;4822481;29;20050;-72
2022/08/21 13:25:47;;;;;;;12.45;3.20;;;;;;;;;;4799339;29;20062;-73
2022/08/21 13:28:14;;;;;;;15.82;3.03;;;24.10;77.60;;;;;;4816716;29;20050;-72
2022/08/21 13:30:58;;;;;;;20.25;3.28;;;25.40;88.60;;;;;;4829091;29;20510;-73